createdAt,value
2017-07-06T00:01:40.032Z,12.93
2017-07-06T00:04:07.604Z,12.47
2017-07-06T00:06:35.155Z,12.30
2017-07-06T00:09:02.738Z,12.07
2017-07-06T00:11:30.281Z,12.70
2017-07-06T00:13:58.110Z,13.20
2017-07-06T00:16:25.633Z,14.30
2017-07-06T00:18:53.161Z,13.53
2017-07-06T00:21:20.734Z,12.67
2017-07-06T00:23:48.292Z,12.27
2017-07-06T00:26:15.952Z,12.57
2017-07-06T00:28:43.475Z,11.87
2017-07-06T00:31:11.137Z,13.23
2017-07-06T00:33:38.672Z,12.33
2017-07-06T00:36:06.269Z,13.00
2017-07-06T00:38:33.853Z,11.87
2017-07-06T00:41:01.479Z,13.20
2017-07-06T00:43:29.027Z,12.80
2017-07-06T00:45:56.539Z,12.53
2017-07-06T00:48:24.092Z,13.10
2017-07-06T00:50:51.591Z,12.20
2017-07-06T00:53:19.548Z,12.20
2017-07-06T00:55:47.075Z,12.23
2017-07-06T00:58:14.604Z,12.80
2017-07-06T01:00:42.159Z,14.47
2017-07-06T01:03:09.688Z,12.03
2017-07-06T01:05:37.240Z,13.60
2017-07-06T01:08:04.746Z,11.53
2017-07-06T01:10:32.308Z,13.37
2017-07-06T01:12:59.824Z,12.93
2017-07-06T01:15:27.584Z,13.83
2017-07-06T01:17:55.116Z,13.07
2017-07-06T01:20:22.631Z,13.53
2017-07-06T01:22:50.243Z,13.13
2017-07-06T01:25:17.878Z,13.57
2017-07-06T01:27:45.435Z,14.20
2017-07-06T01:30:13.012Z,15.63
2017-07-06T01:32:40.584Z,14.37
2017-07-06T01:35:08.119Z,13.20
2017-07-06T01:37:35.935Z,15.47
2017-07-06T01:40:03.455Z,13.00
2017-07-06T01:42:31.023Z,14.53
2017-07-06T01:44:58.609Z,13.30
2017-07-06T01:47:26.148Z,12.57
2017-07-06T01:49:53.749Z,12.17
2017-07-06T01:52:21.329Z,13.20
2017-07-06T01:54:48.881Z,12.37
2017-07-06T01:57:16.401Z,12.70
2017-07-06T01:59:44.160Z,13.67
2017-07-06T02:02:11.713Z,14.73
2017-07-06T02:04:39.245Z,16.10
2017-07-06T02:07:06.808Z,18.87
2017-07-06T02:09:34.341Z,17.37
2017-07-06T02:12:02.051Z,16.60
2017-07-06T02:14:29.637Z,17.03
2017-07-06T02:16:57.385Z,16.70
2017-07-06T02:19:24.901Z,16.83
2017-07-06T02:21:52.419Z,16.53
2017-07-06T02:24:20.045Z,16.93
2017-07-06T02:26:47.589Z,18.47
2017-07-06T02:29:15.198Z,19.57
2017-07-06T02:31:42.722Z,18.70
2017-07-06T02:34:10.287Z,17.53
2017-07-06T02:36:37.853Z,18.47
2017-07-06T02:39:05.824Z,20.00
2017-07-06T02:41:33.338Z,17.93
2017-07-06T02:44:01.291Z,18.90
2017-07-06T02:46:28.918Z,19.73
2017-07-06T02:48:56.476Z,19.10
2017-07-06T02:51:24.031Z,19.03
2017-07-06T02:53:51.551Z,21.00
2017-07-06T02:56:19.111Z,19.40
2017-07-06T02:58:46.636Z,18.03
2017-07-06T03:01:14.191Z,18.30
2017-07-06T03:03:41.716Z,19.00
2017-07-06T03:06:09.391Z,18.67
2017-07-06T03:08:36.916Z,18.30
2017-07-06T03:11:04.444Z,17.00
2017-07-06T03:13:32.008Z,17.10
2017-07-06T03:15:59.549Z,19.20
2017-07-06T03:18:27.124Z,18.00
2017-07-06T03:20:54.653Z,17.40
2017-07-06T03:23:22.211Z,18.00
2017-07-06T03:25:49.754Z,16.53
2017-07-06T03:28:17.276Z,17.77
2017-07-06T03:30:44.926Z,17.70
2017-07-06T03:33:12.451Z,18.03
2017-07-06T03:35:40.053Z,16.33
2017-07-06T03:38:07.608Z,17.73
2017-07-06T03:40:35.269Z,16.80
2017-07-06T03:43:02.787Z,18.57
2017-07-06T03:45:30.739Z,17.23
2017-07-06T03:47:58.254Z,17.07
2017-07-06T03:50:25.763Z,17.50
2017-07-06T03:52:53.323Z,16.50
2017-07-06T03:55:20.848Z,15.30
2017-07-06T03:57:48.395Z,15.73
2017-07-06T04:00:15.922Z,17.17
2017-07-06T04:02:43.487Z,16.63
2017-07-06T04:05:11.010Z,15.67
2017-07-06T04:07:38.630Z,16.13
2017-07-06T04:10:06.207Z,15.80
2017-07-06T04:12:33.789Z,41.83
2017-07-06T04:15:01.431Z,30.20
2017-07-06T04:17:28.966Z,19.43
2017-07-06T04:19:56.626Z,15.80
2017-07-06T04:22:24.154Z,15.20
2017-07-06T04:24:52.079Z,14.20
2017-07-06T04:27:19.616Z,15.87
2017-07-06T04:29:47.140Z,14.57
2017-07-06T04:32:14.711Z,26.57
2017-07-06T04:34:42.256Z,88.60
2017-07-06T04:37:09.823Z,16.50
2017-07-06T04:39:37.344Z,15.87
2017-07-06T04:42:04.895Z,16.47
2017-07-06T04:44:32.471Z,15.80
2017-07-06T04:47:00.174Z,16.23
2017-07-06T04:49:27.787Z,17.00
2017-07-06T04:51:55.315Z,16.63
2017-07-06T04:54:22.860Z,16.77
2017-07-06T04:56:50.379Z,14.90
2017-07-06T04:59:18.232Z,16.13
2017-07-06T05:01:45.775Z,16.63
2017-07-06T05:04:13.301Z,17.00
2017-07-06T05:06:40.893Z,20.07
2017-07-06T05:09:08.426Z,23.50
2017-07-06T05:11:36.048Z,19.53
2017-07-06T05:14:03.615Z,16.70
2017-07-06T05:16:31.195Z,17.00
2017-07-06T05:18:58.726Z,15.97
2017-07-06T05:21:26.301Z,16.93
2017-07-06T05:23:53.933Z,16.63
2017-07-06T05:26:21.672Z,17.47
2017-07-06T05:28:49.224Z,18.23
2017-07-06T05:31:16.743Z,19.40
2017-07-06T05:33:44.321Z,18.40
2017-07-06T05:36:11.857Z,21.10
2017-07-06T05:38:39.528Z,21.00
2017-07-06T05:41:07.142Z,21.40
2017-07-06T05:43:34.739Z,20.03
2017-07-06T05:46:02.264Z,23.20
2017-07-06T05:48:29.927Z,23.50
2017-07-06T05:50:57.445Z,22.23
2017-07-06T05:53:24.960Z,23.90
2017-07-06T05:55:52.522Z,24.63
2017-07-06T05:58:20.054Z,22.90
2017-07-06T06:00:47.765Z,24.30
2017-07-06T06:03:15.289Z,27.67
2017-07-06T06:05:43.023Z,26.07
2017-07-06T06:08:10.548Z,27.87
2017-07-06T06:10:38.218Z,27.10
2017-07-06T06:13:05.772Z,27.20
2017-07-06T06:15:33.314Z,27.00
2017-07-06T06:18:01.012Z,27.17
2017-07-06T06:20:28.547Z,30.30
2017-07-06T06:22:56.167Z,29.90
2017-07-06T06:25:23.719Z,30.33
2017-07-06T06:27:51.291Z,30.43
2017-07-06T06:30:18.873Z,32.60
2017-07-06T06:32:46.675Z,28.87
2017-07-06T06:35:14.204Z,28.87
2017-07-06T06:37:41.752Z,28.20
2017-07-06T06:40:09.318Z,31.63
2017-07-06T06:42:36.855Z,30.10
2017-07-06T06:45:04.455Z,29.83
2017-07-06T06:47:32.001Z,30.27
2017-07-06T06:49:59.716Z,31.73
2017-07-06T06:52:27.238Z,29.13
2017-07-06T06:54:54.803Z,30.97
2017-07-06T06:57:22.445Z,24.20
2017-07-06T06:59:49.976Z,29.47
2017-07-06T07:02:17.541Z,28.37
2017-07-06T07:04:45.069Z,28.03
2017-07-06T07:07:12.824Z,27.63
2017-07-06T07:09:40.392Z,27.63
2017-07-06T07:12:07.911Z,28.90
2017-07-06T07:14:35.492Z,28.50
2017-07-06T07:17:03.040Z,31.73
2017-07-06T07:19:30.602Z,28.20
2017-07-06T07:21:58.261Z,30.50
2017-07-06T07:24:25.879Z,26.97
2017-07-06T07:26:53.423Z,25.80
2017-07-06T07:29:21.145Z,24.63
2017-07-06T07:31:48.664Z,25.93
2017-07-06T07:34:16.280Z,27.20
2017-07-06T07:36:43.840Z,25.87
2017-07-06T07:39:11.363Z,25.37
2017-07-06T07:41:38.941Z,25.13
2017-07-06T07:44:06.468Z,29.77
2017-07-06T07:46:34.050Z,25.77
2017-07-06T07:49:01.675Z,21.53
2017-07-06T07:51:29.344Z,21.30
2017-07-06T07:53:56.912Z,20.67
2017-07-06T07:56:24.441Z,23.20
2017-07-06T07:58:52.036Z,22.27
2017-07-06T08:01:19.565Z,21.77
2017-07-06T08:03:47.204Z,18.50
2017-07-06T08:06:14.720Z,23.37
2017-07-06T08:08:42.463Z,24.73
2017-07-06T08:11:09.996Z,22.50
2017-07-06T08:13:37.532Z,21.10
2017-07-06T08:16:05.104Z,20.30
2017-07-06T08:18:32.620Z,21.70
2017-07-06T08:21:00.182Z,20.17
2017-07-06T08:23:27.703Z,19.57
2017-07-06T08:25:55.407Z,19.70
2017-07-06T08:28:22.937Z,20.53
2017-07-06T08:30:50.505Z,19.77
2017-07-06T08:33:18.067Z,19.40
2017-07-06T08:35:45.591Z,21.90
2017-07-06T08:38:13.154Z,16.53
2017-07-06T08:40:40.671Z,16.87
2017-07-06T08:43:08.395Z,17.30
2017-07-06T08:45:36.035Z,18.03
2017-07-06T08:48:03.563Z,20.43
2017-07-06T08:50:31.207Z,18.37
2017-07-06T08:52:58.791Z,18.80
2017-07-06T08:55:26.439Z,16.83
2017-07-06T08:57:53.972Z,17.40
2017-07-06T09:00:21.535Z,18.27
2017-07-06T09:02:49.054Z,19.17
2017-07-06T09:05:16.880Z,18.63
2017-07-06T09:07:44.404Z,16.60
2017-07-06T09:10:11.915Z,20.40
2017-07-06T09:12:39.468Z,17.93
2017-07-06T09:15:06.985Z,19.87
2017-07-06T09:17:34.568Z,19.33
2017-07-06T09:20:02.104Z,19.10
2017-07-06T09:22:29.663Z,18.27
2017-07-06T09:24:57.185Z,18.60
2017-07-06T09:27:25.125Z,20.40
2017-07-06T09:29:52.679Z,22.37
2017-07-06T09:32:20.256Z,19.80
2017-07-06T09:34:47.832Z,18.27
2017-07-06T09:37:15.353Z,19.47
2017-07-06T09:39:42.912Z,19.40
2017-07-06T09:42:10.452Z,18.17
2017-07-06T09:44:38.016Z,17.47
2017-07-06T09:47:05.531Z,19.43
2017-07-06T09:49:33.211Z,21.53
2017-07-06T09:52:00.738Z,18.70
2017-07-06T09:54:28.268Z,20.30
2017-07-06T09:56:55.839Z,21.40
2017-07-06T09:59:23.355Z,18.30
2017-07-06T10:01:50.991Z,18.67
2017-07-06T10:04:18.654Z,18.90
2017-07-06T10:06:46.212Z,17.53
2017-07-06T10:09:13.731Z,17.97
2017-07-06T10:11:41.495Z,17.40
2017-07-06T10:14:09.131Z,15.27
2017-07-06T10:16:36.672Z,16.00
2017-07-06T10:19:04.242Z,14.80
2017-07-06T10:21:31.831Z,15.90
2017-07-06T10:23:59.447Z,15.83
2017-07-06T10:26:26.982Z,14.30
2017-07-06T10:28:54.551Z,13.60
2017-07-06T10:31:22.079Z,15.93
2017-07-06T10:33:49.639Z,12.03
2017-07-06T10:36:17.160Z,14.00
2017-07-06T10:38:44.851Z,13.83
2017-07-06T10:41:12.384Z,12.53
2017-07-06T10:43:39.898Z,10.70
2017-07-06T10:46:07.458Z,10.37
2017-07-06T10:48:34.977Z,11.37
2017-07-06T10:51:02.536Z,13.50
2017-07-06T10:53:30.063Z,11.70
2017-07-06T10:55:57.619Z,11.80
2017-07-06T10:58:25.144Z,11.37
2017-07-06T11:00:52.679Z,11.93
2017-07-06T11:03:20.240Z,13.20
2017-07-06T11:05:47.765Z,12.00
2017-07-06T11:08:15.353Z,10.13
2017-07-06T11:10:42.892Z,12.73
2017-07-06T11:13:10.451Z,10.83
2017-07-06T11:15:37.975Z,12.27
2017-07-06T11:18:05.649Z,8.10
2017-07-06T11:20:33.175Z,7.10
2017-07-06T11:23:00.748Z,10.80
2017-07-06T11:25:28.403Z,8.40
2017-07-06T11:27:55.909Z,12.30
2017-07-06T11:30:23.478Z,8.70
2017-07-06T11:32:51.091Z,9.37
2017-07-06T11:35:18.660Z,6.73
2017-07-06T11:37:46.252Z,5.93
2017-07-06T11:40:13.891Z,5.77
2017-07-06T11:42:41.539Z,6.93
2017-07-06T11:45:09.125Z,4.77
2017-07-06T11:47:36.712Z,5.80
2017-07-06T11:50:04.230Z,7.53
2017-07-06T11:52:31.788Z,5.00
2017-07-06T11:54:59.457Z,5.80
2017-07-06T11:57:26.970Z,5.60
2017-07-06T11:59:54.532Z,5.80
2017-07-06T12:04:55.863Z,6.70
2017-07-06T12:07:23.379Z,6.23
2017-07-06T12:09:51.056Z,5.20
2017-07-06T12:12:18.568Z,4.90
2017-07-06T12:14:46.093Z,5.23
2017-07-06T12:17:13.681Z,5.03
2017-07-06T12:19:41.259Z,5.00
2017-07-06T12:22:08.890Z,5.60
2017-07-06T12:24:36.463Z,4.50
2017-07-06T12:27:05.008Z,5.50
2017-07-06T12:29:32.555Z,5.53
2017-07-06T12:32:00.085Z,4.60
2017-07-06T12:34:27.647Z,5.20
2017-07-06T12:36:55.209Z,5.50
2017-07-06T12:39:22.821Z,4.60
2017-07-06T12:41:50.415Z,4.87
2017-07-06T12:44:17.976Z,4.90
2017-07-06T12:46:45.590Z,4.40
2017-07-06T12:49:13.169Z,4.30
2017-07-06T12:51:40.688Z,4.43
2017-07-06T12:54:08.240Z,4.10
2017-07-06T12:56:35.756Z,5.47
2017-07-06T12:59:03.386Z,5.67
2017-07-06T13:01:30.963Z,5.33
2017-07-06T13:03:58.545Z,6.43
2017-07-06T13:06:26.124Z,6.07
2017-07-06T13:08:53.645Z,5.70
2017-07-06T13:11:21.499Z,6.63
2017-07-06T13:13:49.025Z,5.40
2017-07-06T13:16:16.557Z,6.03
2017-07-06T13:18:44.218Z,6.43
2017-07-06T13:21:11.748Z,6.70
2017-07-06T13:23:39.424Z,5.70
2017-07-06T13:26:06.947Z,6.00
2017-07-06T13:28:34.613Z,5.00
2017-07-06T13:31:02.176Z,5.97
2017-07-06T13:33:29.893Z,5.87
2017-07-06T13:35:57.409Z,5.87
2017-07-06T13:38:24.984Z,5.67
2017-07-06T13:40:52.537Z,5.97
2017-07-06T13:43:20.064Z,5.63
2017-07-06T13:45:47.618Z,5.17
2017-07-06T13:48:15.139Z,5.13
2017-07-06T13:50:42.712Z,5.93
2017-07-06T13:53:10.233Z,5.03
2017-07-06T13:55:37.932Z,5.00
2017-07-06T13:58:05.596Z,5.93
2017-07-06T14:00:33.185Z,5.80
2017-07-06T14:03:00.800Z,5.80
2017-07-06T14:05:29.310Z,6.40
2017-07-06T14:07:56.830Z,5.47
2017-07-06T14:10:24.384Z,5.57
2017-07-06T14:12:51.917Z,5.87
2017-07-06T14:15:19.431Z,5.50
2017-07-06T14:17:46.976Z,6.57
2017-07-06T14:20:14.493Z,6.47
2017-07-06T14:22:42.024Z,5.30
2017-07-06T14:25:09.540Z,4.93
2017-07-06T14:27:37.082Z,6.30
2017-07-06T14:30:04.610Z,6.03
2017-07-06T14:32:32.162Z,5.80
2017-07-06T14:34:59.689Z,5.70
2017-07-06T14:37:27.268Z,5.57
2017-07-06T14:39:54.783Z,7.37
2017-07-06T14:42:22.307Z,6.73
2017-07-06T14:44:49.863Z,8.10
2017-07-06T14:47:17.423Z,7.97
2017-07-06T14:49:44.987Z,10.83
2017-07-06T14:52:12.537Z,11.77
2017-07-06T14:54:40.088Z,13.13
2017-07-06T14:57:07.637Z,12.03
2017-07-06T14:59:35.199Z,12.13
2017-07-06T15:02:02.767Z,12.93
2017-07-06T15:04:30.339Z,13.57
2017-07-06T15:06:57.915Z,15.87
2017-07-06T15:09:25.574Z,14.80
2017-07-06T15:11:53.180Z,15.97
2017-07-06T15:14:20.708Z,16.43
2017-07-06T15:16:48.284Z,18.80
2017-07-06T15:19:15.965Z,17.53
2017-07-06T15:21:43.563Z,19.00
2017-07-06T15:24:11.091Z,19.43
2017-07-06T15:26:38.667Z,27.83
2017-07-06T15:29:06.243Z,57.03
2017-07-06T15:31:33.871Z,19.37
2017-07-06T15:34:01.782Z,17.90
2017-07-06T15:36:29.488Z,15.70
2017-07-06T15:38:57.016Z,14.63
2017-07-06T15:41:24.548Z,13.07
2017-07-06T15:43:52.109Z,11.33
2017-07-06T15:46:19.766Z,11.23
2017-07-06T15:48:47.332Z,11.80
2017-07-06T15:51:14.854Z,12.47
2017-07-06T15:53:42.416Z,11.53
2017-07-06T15:56:09.943Z,11.40
2017-07-06T15:58:37.508Z,11.33
2017-07-06T16:01:05.024Z,18.40
2017-07-06T16:03:32.600Z,28.13
2017-07-06T16:06:00.136Z,11.07
2017-07-06T16:08:27.702Z,10.00
2017-07-06T16:10:55.264Z,10.07
2017-07-06T16:13:22.776Z,9.80
2017-07-06T16:15:50.370Z,12.53
2017-07-06T16:18:17.963Z,10.80
2017-07-06T16:20:45.531Z,9.50
2017-07-06T16:23:13.114Z,9.93
2017-07-06T16:25:40.721Z,8.80
2017-07-06T16:28:08.333Z,8.27
2017-07-06T16:30:35.852Z,8.90
2017-07-06T16:33:03.518Z,10.50
2017-07-06T16:35:31.093Z,10.80
2017-07-06T16:37:58.597Z,10.40
2017-07-06T16:40:26.164Z,10.00
2017-07-06T16:42:53.680Z,10.30
2017-07-06T16:45:21.235Z,10.97
2017-07-06T16:47:48.753Z,8.70
2017-07-06T16:50:16.312Z,7.90
2017-07-06T16:52:43.895Z,8.90
2017-07-06T16:55:11.466Z,6.70
2017-07-06T16:57:38.982Z,6.90
2017-07-06T17:00:06.487Z,6.07
2017-07-06T17:02:34.058Z,6.50
2017-07-06T17:05:01.571Z,9.17
2017-07-06T17:07:29.123Z,30.60
2017-07-06T17:09:56.648Z,9.33
2017-07-06T17:12:24.195Z,17.87
2017-07-06T17:14:52.539Z,8.80
2017-07-06T17:17:20.087Z,7.30
2017-07-06T17:19:47.623Z,8.33
2017-07-06T17:22:15.242Z,7.73
2017-07-06T17:24:42.762Z,7.30
2017-07-06T17:27:10.324Z,8.17
2017-07-06T17:29:37.856Z,9.17
2017-07-06T17:32:05.399Z,8.90
2017-07-06T17:34:32.904Z,7.57
2017-07-06T17:37:00.524Z,6.73
2017-07-06T17:39:28.042Z,7.10
2017-07-06T17:41:55.564Z,10.33
2017-07-06T17:44:23.119Z,12.60
2017-07-06T17:46:50.666Z,18.10
2017-07-06T17:49:18.215Z,9.03
2017-07-06T17:51:45.738Z,8.67
2017-07-06T17:54:13.425Z,8.23
2017-07-06T17:56:40.961Z,8.80
2017-07-06T17:59:08.474Z,8.50
2017-07-06T18:01:36.044Z,8.00
2017-07-06T18:04:03.576Z,7.27
2017-07-06T18:06:31.124Z,7.63
2017-07-06T18:08:58.650Z,7.70
2017-07-06T18:11:26.205Z,7.60
2017-07-06T18:13:53.752Z,8.00
2017-07-06T18:16:21.309Z,15.70
2017-07-06T18:18:48.849Z,11.30
2017-07-06T18:21:16.420Z,8.70
2017-07-06T18:23:43.955Z,10.50
2017-07-06T18:26:11.531Z,10.50
2017-07-06T18:28:39.050Z,8.67
2017-07-06T18:31:06.599Z,8.00
2017-07-06T18:33:34.126Z,7.43
2017-07-06T18:36:01.664Z,7.10
2017-07-06T18:38:29.244Z,7.70
2017-07-06T18:40:56.820Z,8.63
2017-07-06T18:43:24.380Z,9.73
2017-07-06T18:45:51.899Z,9.67
2017-07-06T18:48:19.468Z,9.20
2017-07-06T18:50:47.041Z,8.60
2017-07-06T18:53:14.579Z,6.83
2017-07-06T18:55:42.102Z,7.43
2017-07-06T18:58:09.639Z,6.80
2017-07-06T19:00:37.162Z,7.30
2017-07-06T19:03:04.720Z,6.80
2017-07-06T19:05:32.259Z,7.00
2017-07-06T19:07:59.799Z,6.20
2017-07-06T19:10:27.353Z,6.23
2017-07-06T19:12:54.922Z,5.77
2017-07-06T19:15:22.434Z,5.00
2017-07-06T19:17:49.985Z,5.20
2017-07-06T19:20:17.516Z,4.53
2017-07-06T19:22:45.103Z,24.20
2017-07-06T19:25:12.633Z,8.30
2017-07-06T19:27:40.137Z,5.90
2017-07-06T19:30:07.681Z,6.70
2017-07-06T19:32:35.179Z,7.13
2017-07-06T19:35:02.715Z,7.27
2017-07-06T19:37:30.233Z,6.93
2017-07-06T19:39:57.809Z,6.63
2017-07-06T19:42:25.337Z,7.27
2017-07-06T19:44:52.897Z,7.70
2017-07-06T19:47:20.412Z,8.30
2017-07-06T19:49:48.004Z,16.80
2017-07-06T19:52:15.538Z,13.43
2017-07-06T19:54:43.043Z,7.97
2017-07-06T19:57:10.572Z,8.30
2017-07-06T19:59:38.184Z,8.43
2017-07-06T20:02:05.824Z,8.20
2017-07-06T20:04:33.358Z,7.23
2017-07-06T20:07:00.972Z,6.10
2017-07-06T20:09:28.504Z,6.10
2017-07-06T20:11:56.169Z,5.20
2017-07-06T20:14:23.729Z,5.17
2017-07-06T20:16:51.333Z,20.53
2017-07-06T20:19:18.860Z,8.47
2017-07-06T20:21:46.425Z,5.50
2017-07-06T20:24:13.971Z,4.70
2017-07-06T20:26:41.529Z,5.30
2017-07-06T20:29:09.049Z,5.40
2017-07-06T20:31:36.606Z,4.90
2017-07-06T20:34:04.146Z,5.27
2017-07-06T20:36:31.721Z,5.70
2017-07-06T20:38:59.254Z,5.43
2017-07-06T20:41:26.784Z,5.37
2017-07-06T20:43:54.366Z,6.33
2017-07-06T20:46:21.887Z,6.50
2017-07-06T20:48:49.450Z,7.30
2017-07-06T20:51:17.063Z,6.10
2017-07-06T20:53:44.626Z,6.37
2017-07-06T20:56:12.162Z,5.60
2017-07-06T20:58:39.711Z,5.60
2017-07-06T21:01:07.288Z,5.80
2017-07-06T21:03:34.838Z,6.00
2017-07-06T21:06:02.358Z,5.33
2017-07-06T21:08:29.962Z,5.47
2017-07-06T21:10:57.488Z,5.83
2017-07-06T21:13:25.036Z,5.60
2017-07-06T21:15:52.627Z,6.00
2017-07-06T21:18:20.188Z,6.30
2017-07-06T21:20:47.871Z,5.83
2017-07-06T21:23:15.417Z,6.73
2017-07-06T21:25:42.922Z,5.97
2017-07-06T21:28:10.479Z,6.30
2017-07-06T21:30:38.006Z,6.50
2017-07-06T21:33:06.199Z,7.23
2017-07-06T21:35:33.763Z,6.50
2017-07-06T21:38:01.399Z,7.40
2017-07-06T21:40:28.944Z,7.07
2017-07-06T21:42:56.503Z,6.30
2017-07-06T21:45:24.025Z,6.30
2017-07-06T21:47:51.580Z,6.20
2017-07-06T21:50:19.099Z,6.90
2017-07-06T21:52:46.716Z,6.60
2017-07-06T21:55:14.304Z,7.30
2017-07-06T21:57:41.840Z,8.77
2017-07-06T22:00:09.389Z,6.50
2017-07-06T22:02:36.943Z,7.90
2017-07-06T22:05:04.594Z,7.93
2017-07-06T22:07:32.112Z,7.37
2017-07-06T22:09:59.684Z,6.80
2017-07-06T22:12:27.209Z,6.93
2017-07-06T22:14:54.788Z,6.80
2017-07-06T22:17:22.419Z,6.10
2017-07-06T22:19:49.968Z,6.63
2017-07-06T22:22:17.526Z,6.90
2017-07-06T22:24:45.101Z,7.40
2017-07-06T22:27:12.684Z,6.90
2017-07-06T22:29:40.260Z,6.83
2017-07-06T22:32:07.792Z,6.73
2017-07-06T22:34:35.412Z,6.77
2017-07-06T22:37:02.939Z,6.90
2017-07-06T22:39:30.487Z,6.40
2017-07-06T22:41:58.017Z,6.03
2017-07-06T22:44:25.575Z,6.50
2017-07-06T22:46:53.127Z,6.23
2017-07-06T22:49:20.699Z,7.37
2017-07-06T22:51:48.223Z,6.83
2017-07-06T22:54:15.948Z,6.33
2017-07-06T22:56:43.559Z,5.60
2017-07-06T22:59:11.089Z,6.13
2017-07-06T23:01:38.749Z,6.20
2017-07-06T23:04:06.446Z,6.67
2017-07-06T23:06:33.960Z,6.27
2017-07-06T23:09:01.605Z,6.37
2017-07-06T23:11:29.163Z,5.60
2017-07-06T23:13:56.693Z,6.80
2017-07-06T23:16:24.350Z,6.07
2017-07-06T23:18:51.984Z,6.73
2017-07-06T23:21:19.567Z,5.60
2017-07-06T23:23:47.180Z,5.70
2017-07-06T23:26:14.786Z,6.20
2017-07-06T23:28:42.295Z,6.40
2017-07-06T23:31:09.859Z,5.47
2017-07-06T23:33:37.404Z,6.83
2017-07-06T23:36:04.949Z,7.20
2017-07-06T23:38:32.491Z,7.20
2017-07-06T23:41:00.027Z,7.23
2017-07-06T23:43:27.604Z,6.23
2017-07-06T23:45:55.215Z,6.37
2017-07-06T23:48:22.782Z,6.90
2017-07-06T23:50:50.358Z,5.73
2017-07-06T23:53:17.888Z,6.87
2017-07-06T23:55:45.444Z,5.33
2017-07-06T23:58:12.968Z,5.87
